sensor_id;sensor_type;location;lat;lon;timestamp;pressure;altitude;pressure_sealevel;temperature;humidity
33697;BME280;20031;43.416;23.232;2023-03-25T00:00:31;99569.47;;;9.39;75.15
33697;BME280;20031;43.416;23.232;2023-03-25T00:02:57;99568.19;;;9.35;74.90
33697;BME280;20031;43.416;23.232;2023-03-25T00:05:23;99560.69;;;9.32;74.94
33697;BME280;20031;43.416;23.232;2023-03-25T00:07:51;99568.81;;;9.29;74.91
33697;BME280;20031;43.416;23.232;2023-03-25T00:10:17;99560.41;;;9.27;74.98
33697;BME280;20031;43.416;23.232;2023-03-25T00:12:42;99561.53;;;9.24;75.05
33697;BME280;20031;43.416;23.232;2023-03-25T00:15:10;99571.75;;;9.18;74.89
33697;BME280;20031;43.416;23.232;2023-03-25T00:17:36;99575.97;;;9.11;75.01
33697;BME280;20031;43.416;23.232;2023-03-25T00:20:04;99564.91;;;9.09;75.17
33697;BME280;20031;43.416;23.232;2023-03-25T00:22:37;99558.75;;;9.10;75.33
33697;BME280;20031;43.416;23.232;2023-03-25T00:25:07;99557.78;;;9.11;75.29
33697;BME280;20031;43.416;23.232;2023-03-25T00:27:33;99558.13;;;9.08;75.41
33697;BME280;20031;43.416;23.232;2023-03-25T00:29:59;99558.75;;;9.02;75.64
33697;BME280;20031;43.416;23.232;2023-03-25T00:32:24;99558.75;;;9.02;75.06
33697;BME280;20031;43.416;23.232;2023-03-25T00:34:54;99551.28;;;8.99;75.75
33697;BME280;20031;43.416;23.232;2023-03-25T00:37:19;99547.22;;;8.97;75.64
33697;BME280;20031;43.416;23.232;2023-03-25T00:39:46;99557.63;;;8.97;75.69
33697;BME280;20031;43.416;23.232;2023-03-25T00:42:16;99557.13;;;8.93;75.79
33697;BME280;20031;43.416;23.232;2023-03-25T00:44:41;99557.59;;;8.89;75.75
33697;BME280;20031;43.416;23.232;2023-03-25T00:47:07;99561.16;;;8.88;75.87
33697;BME280;20031;43.416;23.232;2023-03-25T00:49:32;99561.00;;;8.89;76.11
33697;BME280;20031;43.416;23.232;2023-03-25T00:51:58;99539.91;;;8.92;76.35
33697;BME280;20031;43.416;23.232;2023-03-25T00:54:23;99543.16;;;8.94;76.02
33697;BME280;20031;43.416;23.232;2023-03-25T00:56:50;99532.09;;;8.92;76.13
33697;BME280;20031;43.416;23.232;2023-03-25T00:59:16;99539.91;;;8.92;76.21
33697;BME280;20031;43.416;23.232;2023-03-25T01:01:42;99535.88;;;8.90;76.37
33697;BME280;20031;43.416;23.232;2023-03-25T01:04:10;99536.19;;;8.87;76.13
33697;BME280;20031;43.416;23.232;2023-03-25T01:06:41;99534.22;;;8.89;76.66
33697;BME280;20031;43.416;23.232;2023-03-25T01:09:10;99531.47;;;8.90;76.51
33697;BME280;20031;43.416;23.232;2023-03-25T01:11:38;99527.59;;;8.94;76.52
33697;BME280;20031;43.416;23.232;2023-03-25T01:14:06;99533.59;;;8.95;76.55
33697;BME280;20031;43.416;23.232;2023-03-25T01:16:33;99536.84;;;8.97;76.30
33697;BME280;20031;43.416;23.232;2023-03-25T01:18:59;99519.13;;;8.92;76.68
33697;BME280;20031;43.416;23.232;2023-03-25T01:21:25;99517.69;;;8.90;76.74
33697;BME280;20031;43.416;23.232;2023-03-25T01:23:50;99527.56;;;8.86;77.31
33697;BME280;20031;43.416;23.232;2023-03-25T01:26:15;99527.56;;;8.86;77.46
33697;BME280;20031;43.416;23.232;2023-03-25T01:28:42;99520.09;;;8.83;77.37
33697;BME280;20031;43.416;23.232;2023-03-25T01:31:10;99509.41;;;8.78;77.66
33697;BME280;20031;43.416;23.232;2023-03-25T01:33:36;99504.38;;;8.77;77.98
33697;BME280;20031;43.416;23.232;2023-03-25T01:36:02;99503.69;;;8.75;77.78
33697;BME280;20031;43.416;23.232;2023-03-25T01:38:28;99505.00;;;8.79;78.05
33697;BME280;20031;43.416;23.232;2023-03-25T01:40:55;99497.72;;;8.82;77.64
33697;BME280;20031;43.416;23.232;2023-03-25T01:43:21;99494.13;;;8.83;77.63
33697;BME280;20031;43.416;23.232;2023-03-25T01:45:48;99500.81;;;8.86;77.40
33697;BME280;20031;43.416;23.232;2023-03-25T01:48:27;99498.84;;;8.88;77.36
33697;BME280;20031;43.416;23.232;2023-03-25T01:51:09;99484.72;;;8.90;77.55
33697;BME280;20031;43.416;23.232;2023-03-25T01:53:37;99487.00;;;8.93;76.93
33697;BME280;20031;43.416;23.232;2023-03-25T01:56:04;99485.06;;;8.95;76.90
33697;BME280;20031;43.416;23.232;2023-03-25T01:58:32;99483.91;;;8.98;76.73
33697;BME280;20031;43.416;23.232;2023-03-25T02:00:58;99484.41;;;9.01;76.61
33697;BME280;20031;43.416;23.232;2023-03-25T02:03:26;99483.41;;;9.02;76.42
33697;BME280;20031;43.416;23.232;2023-03-25T02:08:22;99486.84;;;8.95;76.16
33697;BME280;20031;43.416;23.232;2023-03-25T02:10:49;99488.28;;;8.89;76.13
33697;BME280;20031;43.416;23.232;2023-03-25T02:13:16;99481.81;;;8.85;76.30
33697;BME280;20031;43.416;23.232;2023-03-25T02:15:55;99479.56;;;8.82;76.42
33697;BME280;20031;43.416;23.232;2023-03-25T02:18:59;99473.19;;;8.85;76.45
33697;BME280;20031;43.416;23.232;2023-03-25T02:29:13;99487.81;;;8.86;77.36
33697;BME280;20031;43.416;23.232;2023-03-25T02:40:04;99485.03;;;8.79;78.40
33697;BME280;20031;43.416;23.232;2023-03-25T02:42:42;99488.63;;;8.78;78.42
33697;BME280;20031;43.416;23.232;2023-03-25T02:45:18;99496.75;;;8.75;78.63
33697;BME280;20031;43.416;23.232;2023-03-25T02:47:53;99495.09;;;8.74;78.68
33697;BME280;20031;43.416;23.232;2023-03-25T02:50:25;99491.19;;;8.70;78.72
33697;BME280;20031;43.416;23.232;2023-03-25T02:52:56;99485.06;;;8.71;79.33
33697;BME280;20031;43.416;23.232;2023-03-25T02:55:26;99487.66;;;8.71;79.06
33697;BME280;20031;43.416;23.232;2023-03-25T02:57:55;99485.22;;;8.70;78.99
33697;BME280;20031;43.416;23.232;2023-03-25T03:00:26;99482.63;;;8.70;78.81
33697;BME280;20031;43.416;23.232;2023-03-25T03:02:57;99485.38;;;8.68;78.70
33697;BME280;20031;43.416;23.232;2023-03-25T03:05:28;99477.44;;;8.70;78.76
33697;BME280;20031;43.416;23.232;2023-03-25T03:17:07;99483.03;;;8.34;78.67
33697;BME280;20031;43.416;23.232;2023-03-25T03:19:40;99479.09;;;8.30;78.51
33697;BME280;20031;43.416;23.232;2023-03-25T03:24:49;99480.38;;;8.18;78.25
33697;BME280;20031;43.416;23.232;2023-03-25T03:29:53;99488.94;;;8.11;78.31
33697;BME280;20031;43.416;23.232;2023-03-25T03:35:05;99493.75;;;7.98;78.58
33697;BME280;20031;43.416;23.232;2023-03-25T03:37:39;99500.25;;;8.02;79.13
33697;BME280;20031;43.416;23.232;2023-03-25T03:40:10;99501.69;;;8.04;78.57
33697;BME280;20031;43.416;23.232;2023-03-25T03:42:46;99500.09;;;8.03;79.02
33697;BME280;20031;43.416;23.232;2023-03-25T03:45:17;99497.78;;;8.00;78.65
33697;BME280;20031;43.416;23.232;2023-03-25T03:47:48;99501.34;;;7.99;78.89
33697;BME280;20031;43.416;23.232;2023-03-25T03:50:19;99506.84;;;7.96;78.44
33697;BME280;20031;43.416;23.232;2023-03-25T03:53:07;99500.16;;;7.86;78.61
33697;BME280;20031;43.416;23.232;2023-03-25T03:58:26;99513.19;;;7.68;78.65
33697;BME280;20031;43.416;23.232;2023-03-25T04:01:12;99510.84;;;7.58;78.93
33697;BME280;20031;43.416;23.232;2023-03-25T04:03:45;99513.72;;;7.47;78.87
33697;BME280;20031;43.416;23.232;2023-03-25T04:06:45;99519.50;;;7.41;79.66
33697;BME280;20031;43.416;23.232;2023-03-25T04:12:05;99517.03;;;7.39;79.71
33697;BME280;20031;43.416;23.232;2023-03-25T04:14:36;99515.28;;;7.40;79.74
33697;BME280;20031;43.416;23.232;2023-03-25T04:17:04;99519.50;;;7.41;80.02
33697;BME280;20031;43.416;23.232;2023-03-25T04:19:29;99507.81;;;7.37;79.76
33697;BME280;20031;43.416;23.232;2023-03-25T04:21:58;99517.72;;;7.41;80.22
33697;BME280;20031;43.416;23.232;2023-03-25T04:24:28;99508.69;;;7.45;80.20
33697;BME280;20031;43.416;23.232;2023-03-25T04:26:58;99514.50;;;7.47;79.94
33697;BME280;20031;43.416;23.232;2023-03-25T04:29:30;99518.72;;;7.48;80.23
33697;BME280;20031;43.416;23.232;2023-03-25T04:31:57;99520.94;;;7.43;79.84
33697;BME280;20031;43.416;23.232;2023-03-25T04:34:22;99523.84;;;7.40;80.29
33697;BME280;20031;43.416;23.232;2023-03-25T04:36:49;99522.22;;;7.39;79.93
33697;BME280;20031;43.416;23.232;2023-03-25T04:39:14;99522.09;;;7.41;80.38
33697;BME280;20031;43.416;23.232;2023-03-25T04:41:47;99521.94;;;7.42;80.31
33697;BME280;20031;43.416;23.232;2023-03-25T04:44:14;99522.44;;;7.46;80.05
33697;BME280;20031;43.416;23.232;2023-03-25T04:46:39;99523.22;;;7.46;80.08
33697;BME280;20031;43.416;23.232;2023-03-25T04:49:06;99527.38;;;7.57;80.60
33697;BME280;20031;43.416;23.232;2023-03-25T04:51:38;99530.06;;;7.72;80.56
33697;BME280;20031;43.416;23.232;2023-03-25T04:54:06;99522.66;;;7.85;80.47
33697;BME280;20031;43.416;23.232;2023-03-25T04:56:32;99525.81;;;7.97;80.37
33697;BME280;20031;43.416;23.232;2023-03-25T04:58:57;99521.47;;;8.05;79.94
33697;BME280;20031;43.416;23.232;2023-03-25T05:01:25;99527.81;;;8.11;79.93
33697;BME280;20031;43.416;23.232;2023-03-25T05:03:59;99520.59;;;8.22;80.46
33697;BME280;20031;43.416;23.232;2023-03-25T05:06:36;99515.00;;;8.42;79.59
33697;BME280;20031;43.416;23.232;2023-03-25T05:09:07;99521.38;;;8.56;79.60
33697;BME280;20031;43.416;23.232;2023-03-25T05:11:34;99517.66;;;8.74;79.19
33697;BME280;20031;43.416;23.232;2023-03-25T05:14:15;99515.25;;;8.88;78.95
33697;BME280;20031;43.416;23.232;2023-03-25T05:16:42;99516.22;;;9.03;78.35
33697;BME280;20031;43.416;23.232;2023-03-25T05:19:08;99521.56;;;9.17;77.83
33697;BME280;20031;43.416;23.232;2023-03-25T05:21:38;99518.81;;;9.27;77.91
33697;BME280;20031;43.416;23.232;2023-03-25T05:24:06;99514.09;;;9.30;77.25
33697;BME280;20031;43.416;23.232;2023-03-25T05:26:35;99523.03;;;9.36;77.14
33697;BME280;20031;43.416;23.232;2023-03-25T05:29:05;99523.19;;;9.50;77.23
33697;BME280;20031;43.416;23.232;2023-03-25T05:31:31;99526.56;;;9.59;76.53
33697;BME280;20031;43.416;23.232;2023-03-25T05:33:56;99527.91;;;9.55;75.89
33697;BME280;20031;43.416;23.232;2023-03-25T05:36:22;99519.78;;;9.58;75.70
33697;BME280;20031;43.416;23.232;2023-03-25T05:38:54;99525.44;;;9.69;76.09
33697;BME280;20031;43.416;23.232;2023-03-25T05:41:21;99528.63;;;9.87;75.79
33697;BME280;20031;43.416;23.232;2023-03-25T05:43:57;99528.59;;;10.11;75.64
33697;BME280;20031;43.416;23.232;2023-03-25T05:46:23;99523.03;;;10.21;74.98
33697;BME280;20031;43.416;23.232;2023-03-25T05:48:48;99517.06;;;10.43;74.78
33697;BME280;20031;43.416;23.232;2023-03-25T05:51:17;99533.09;;;10.55;73.83
33697;BME280;20031;43.416;23.232;2023-03-25T05:53:47;99529.78;;;10.68;73.47
33697;BME280;20031;43.416;23.232;2023-03-25T05:56:17;99536.53;;;10.77;72.95
33697;BME280;20031;43.416;23.232;2023-03-25T05:58:48;99534.84;;;10.92;72.57
33697;BME280;20031;43.416;23.232;2023-03-25T06:01:16;99538.13;;;11.09;72.07
33697;BME280;20031;43.416;23.232;2023-03-25T06:03:42;99535.50;;;11.31;71.63
33697;BME280;20031;43.416;23.232;2023-03-25T06:06:09;99537.94;;;11.55;71.00
33697;BME280;20031;43.416;23.232;2023-03-25T06:08:40;99531.13;;;11.82;70.39
33697;BME280;20031;43.416;23.232;2023-03-25T06:11:07;99540.41;;;12.14;69.60
33697;BME280;20031;43.416;23.232;2023-03-25T06:13:33;99529.84;;;12.36;68.59
33697;BME280;20031;43.416;23.232;2023-03-25T06:16:03;99538.19;;;12.60;67.46
33697;BME280;20031;43.416;23.232;2023-03-25T06:18:30;99535.16;;;12.77;66.53
33697;BME280;20031;43.416;23.232;2023-03-25T06:20:56;99528.75;;;12.94;65.69
33697;BME280;20031;43.416;23.232;2023-03-25T06:23:22;99520.53;;;13.18;65.11
33697;BME280;20031;43.416;23.232;2023-03-25T06:25:49;99533.81;;;13.44;64.24
33697;BME280;20031;43.416;23.232;2023-03-25T06:28:15;99531.97;;;13.65;63.41
33697;BME280;20031;43.416;23.232;2023-03-25T06:30:43;99530.56;;;13.90;62.72
33697;BME280;20031;43.416;23.232;2023-03-25T06:33:09;99525.69;;;14.14;61.84
33697;BME280;20031;43.416;23.232;2023-03-25T06:35:35;99524.34;;;14.31;61.00
33697;BME280;20031;43.416;23.232;2023-03-25T06:38:00;99537.81;;;14.22;59.91
33697;BME280;20031;43.416;23.232;2023-03-25T06:40:26;99531.41;;;14.03;59.82
33697;BME280;20031;43.416;23.232;2023-03-25T06:42:51;99528.81;;;14.03;60.43
33697;BME280;20031;43.416;23.232;2023-03-25T06:45:17;99526.13;;;14.24;60.08
33697;BME280;20031;43.416;23.232;2023-03-25T06:47:42;99525.59;;;14.35;59.81
33697;BME280;20031;43.416;23.232;2023-03-25T06:50:08;99527.09;;;14.57;59.70
33697;BME280;20031;43.416;23.232;2023-03-25T06:52:34;99526.63;;;14.47;58.93
33697;BME280;20031;43.416;23.232;2023-03-25T06:55:00;99525.84;;;14.53;59.45
33697;BME280;20031;43.416;23.232;2023-03-25T06:57:25;99533.97;;;14.64;58.12
33697;BME280;20031;43.416;23.232;2023-03-25T06:59:51;99530.44;;;14.38;58.01
33697;BME280;20031;43.416;23.232;2023-03-25T07:02:16;99535.56;;;14.19;59.30
33697;BME280;20031;43.416;23.232;2023-03-25T07:04:41;99536.31;;;14.06;59.33
33697;BME280;20031;43.416;23.232;2023-03-25T07:07:08;99540.41;;;14.15;59.18
33697;BME280;20031;43.416;23.232;2023-03-25T07:09:34;99535.88;;;14.43;59.44
33697;BME280;20031;43.416;23.232;2023-03-25T07:11:59;99535.22;;;14.81;59.32
33697;BME280;20031;43.416;23.232;2023-03-25T07:14:25;99540.31;;;15.08;58.34
33697;BME280;20031;43.416;23.232;2023-03-25T07:16:50;99542.31;;;15.00;57.81
33697;BME280;20031;43.416;23.232;2023-03-25T07:19:16;99537.00;;;14.74;57.63
33697;BME280;20031;43.416;23.232;2023-03-25T07:21:41;99542.81;;;14.57;58.02
33697;BME280;20031;43.416;23.232;2023-03-25T07:24:07;99543.78;;;14.49;58.26
33697;BME280;20031;43.416;23.232;2023-03-25T07:26:32;99539.00;;;14.59;58.83
33697;BME280;20031;43.416;23.232;2023-03-25T07:28:58;99537.22;;;14.73;58.77
33697;BME280;20031;43.416;23.232;2023-03-25T07:31:23;99537.44;;;14.84;58.27
33697;BME280;20031;43.416;23.232;2023-03-25T07:33:48;99536.91;;;15.08;58.57
33697;BME280;20031;43.416;23.232;2023-03-25T07:36:15;99539.97;;;15.69;57.75
33697;BME280;20031;43.416;23.232;2023-03-25T07:38:48;99529.00;;;16.24;56.70
33697;BME280;20031;43.416;23.232;2023-03-25T07:41:25;99532.81;;;16.78;55.22
33697;BME280;20031;43.416;23.232;2023-03-25T07:44:03;99525.66;;;17.28;53.74
33697;BME280;20031;43.416;23.232;2023-03-25T07:46:35;99531.34;;;17.74;52.47
33697;BME280;20031;43.416;23.232;2023-03-25T07:49:05;99522.00;;;17.95;49.93
33697;BME280;20031;43.416;23.232;2023-03-25T07:51:37;99515.56;;;18.16;48.98
33697;BME280;20031;43.416;23.232;2023-03-25T07:54:13;99518.91;;;18.41;48.36
33697;BME280;20031;43.416;23.232;2023-03-25T07:56:49;99512.22;;;18.56;47.42
33697;BME280;20031;43.416;23.232;2023-03-25T07:59:28;99511.25;;;18.97;46.01
33697;BME280;20031;43.416;23.232;2023-03-25T08:02:08;99503.91;;;19.40;45.23
33697;BME280;20031;43.416;23.232;2023-03-25T08:04:44;99508.75;;;19.77;43.92
33697;BME280;20031;43.416;23.232;2023-03-25T08:07:22;99502.34;;;19.96;42.78
33697;BME280;20031;43.416;23.232;2023-03-25T08:10:02;99497.78;;;20.31;42.66
33697;BME280;20031;43.416;23.232;2023-03-25T08:12:38;99484.59;;;20.70;42.35
33697;BME280;20031;43.416;23.232;2023-03-25T08:15:13;99480.38;;;21.01;41.95
33697;BME280;20031;43.416;23.232;2023-03-25T08:17:51;99474.53;;;21.16;41.50
33697;BME280;20031;43.416;23.232;2023-03-25T08:20:29;99467.63;;;20.99;41.34
33697;BME280;20031;43.416;23.232;2023-03-25T08:23:06;99467.22;;;20.90;42.24
33697;BME280;20031;43.416;23.232;2023-03-25T08:25:47;99466.06;;;20.70;43.25
33697;BME280;20031;43.416;23.232;2023-03-25T08:28:25;99462.41;;;20.59;43.36
33697;BME280;20031;43.416;23.232;2023-03-25T08:31:04;99461.03;;;20.57;43.92
33697;BME280;20031;43.416;23.232;2023-03-25T08:33:42;99463.28;;;20.37;44.19
33697;BME280;20031;43.416;23.232;2023-03-25T08:36:20;99460.59;;;20.09;44.51
33697;BME280;20031;43.416;23.232;2023-03-25T08:38:58;99465.31;;;19.85;45.02
33697;BME280;20031;43.416;23.232;2023-03-25T08:41:40;99471.19;;;19.64;45.80
33697;BME280;20031;43.416;23.232;2023-03-25T08:44:17;99464.28;;;19.63;46.21
33697;BME280;20031;43.416;23.232;2023-03-25T08:46:54;99458.34;;;19.90;44.80
33697;BME280;20031;43.416;23.232;2023-03-25T08:49:31;99443.44;;;20.51;43.92
33697;BME280;20031;43.416;23.232;2023-03-25T08:52:09;99445.34;;;21.11;39.76
33697;BME280;20031;43.416;23.232;2023-03-25T08:54:49;99444.38;;;21.66;37.33
33697;BME280;20031;43.416;23.232;2023-03-25T08:57:28;99435.50;;;22.19;36.41
33697;BME280;20031;43.416;23.232;2023-03-25T09:00:05;99434.50;;;22.68;35.15
33697;BME280;20031;43.416;23.232;2023-03-25T09:02:49;99425.59;;;23.05;34.05
33697;BME280;20031;43.416;23.232;2023-03-25T09:05:31;99423.16;;;23.35;33.92
33697;BME280;20031;43.416;23.232;2023-03-25T09:08:09;99424.16;;;23.65;32.80
33697;BME280;20031;43.416;23.232;2023-03-25T09:10:47;99420.06;;;23.84;32.33
33697;BME280;20031;43.416;23.232;2023-03-25T09:13:24;99420.50;;;24.27;32.19
33697;BME280;20031;43.416;23.232;2023-03-25T09:16:01;99414.25;;;24.67;31.63
33697;BME280;20031;43.416;23.232;2023-03-25T09:18:38;99410.22;;;24.80;31.76
33697;BME280;20031;43.416;23.232;2023-03-25T09:21:15;99402.78;;;24.97;31.74
33697;BME280;20031;43.416;23.232;2023-03-25T09:23:52;99413.50;;;25.02;31.49
33697;BME280;20031;43.416;23.232;2023-03-25T09:26:29;99415.31;;;24.76;30.77
33697;BME280;20031;43.416;23.232;2023-03-25T09:29:05;99406.75;;;24.60;30.83
33697;BME280;20031;43.416;23.232;2023-03-25T09:31:41;99396.09;;;24.45;31.26
33697;BME280;20031;43.416;23.232;2023-03-25T09:34:17;99407.44;;;24.30;31.73
33697;BME280;20031;43.416;23.232;2023-03-25T09:36:53;99394.44;;;24.39;31.68
33697;BME280;20031;43.416;23.232;2023-03-25T09:39:27;99404.31;;;24.53;31.47
33697;BME280;20031;43.416;23.232;2023-03-25T09:47:53;99397.47;;;24.82;30.79
33697;BME280;20031;43.416;23.232;2023-03-25T09:50:33;99396.63;;;24.71;31.62
33697;BME280;20031;43.416;23.232;2023-03-25T09:53:29;99393.69;;;24.73;31.07
33697;BME280;20031;43.416;23.232;2023-03-25T09:56:15;99396.13;;;24.79;30.38
33697;BME280;20031;43.416;23.232;2023-03-25T10:07:59;99401.66;;;24.43;31.20
33697;BME280;20031;43.416;23.232;2023-03-25T10:13:31;99389.97;;;24.54;30.91
33697;BME280;20031;43.416;23.232;2023-03-25T10:16:33;99384.09;;;24.47;31.39
33697;BME280;20031;43.416;23.232;2023-03-25T10:25:26;99384.78;;;24.18;31.03
33697;BME280;20031;43.416;23.232;2023-03-25T10:28:09;99384.00;;;24.22;31.22
33697;BME280;20031;43.416;23.232;2023-03-25T10:30:52;99376.31;;;24.31;31.10
33697;BME280;20031;43.416;23.232;2023-03-25T10:33:45;99370.72;;;24.32;31.19
33697;BME280;20031;43.416;23.232;2023-03-25T10:36:41;99365.38;;;24.27;31.62
33697;BME280;20031;43.416;23.232;2023-03-25T10:39:22;99369.09;;;24.21;32.33
33697;BME280;20031;43.416;23.232;2023-03-25T10:42:34;99372.25;;;24.04;31.80
33697;BME280;20031;43.416;23.232;2023-03-25T10:45:20;99368.75;;;23.98;33.05
33697;BME280;20031;43.416;23.232;2023-03-25T10:48:12;99371.69;;;23.97;32.90
33697;BME280;20031;43.416;23.232;2023-03-25T10:51:01;99362.66;;;24.03;32.84
33697;BME280;20031;43.416;23.232;2023-03-25T10:53:39;99355.19;;;24.00;33.05
33697;BME280;20031;43.416;23.232;2023-03-25T10:56:25;99355.72;;;23.97;33.23
33697;BME280;20031;43.416;23.232;2023-03-25T10:59:13;99356.19;;;23.84;32.48
33697;BME280;20031;43.416;23.232;2023-03-25T11:01:56;99351.41;;;23.91;32.82
33697;BME280;20031;43.416;23.232;2023-03-25T11:04:40;99356.16;;;23.79;32.01
33697;BME280;20031;43.416;23.232;2023-03-25T11:07:32;99348.75;;;23.86;32.87
33697;BME280;20031;43.416;23.232;2023-03-25T11:10:15;99344.06;;;24.22;32.63
33697;BME280;20031;43.416;23.232;2023-03-25T11:12:54;99336.69;;;24.44;32.23
33697;BME280;20031;43.416;23.232;2023-03-25T11:15:36;99341.16;;;24.34;31.75
33697;BME280;20031;43.416;23.232;2023-03-25T11:21:10;99352.22;;;23.96;33.08
33697;BME280;20031;43.416;23.232;2023-03-25T11:23:48;99352.75;;;23.88;32.79
33697;BME280;20031;43.416;23.232;2023-03-25T11:26:38;99347.13;;;23.80;32.86
33697;BME280;20031;43.416;23.232;2023-03-25T11:29:22;99339.09;;;23.70;33.38
33697;BME280;20031;43.416;23.232;2023-03-25T11:32:10;99322.84;;;23.66;33.27
33697;BME280;20031;43.416;23.232;2023-03-25T11:34:52;99324.59;;;23.51;34.03
33697;BME280;20031;43.416;23.232;2023-03-25T11:37:35;99314.75;;;23.42;34.23
33697;BME280;20031;43.416;23.232;2023-03-25T11:40:20;99323.97;;;23.24;34.40
33697;BME280;20031;43.416;23.232;2023-03-25T11:43:01;99319.94;;;23.22;34.73
33697;BME280;20031;43.416;23.232;2023-03-25T11:45:41;99314.59;;;23.17;35.52
33697;BME280;20031;43.416;23.232;2023-03-25T11:48:23;99312.19;;;23.15;35.51
33697;BME280;20031;43.416;23.232;2023-03-25T11:51:11;99307.38;;;23.12;35.14
33697;BME280;20031;43.416;23.232;2023-03-25T11:54:04;99302.28;;;23.01;35.37
33697;BME280;20031;43.416;23.232;2023-03-25T11:56:44;99305.44;;;22.98;35.79
33697;BME280;20031;43.416;23.232;2023-03-25T11:59:34;99308.88;;;22.99;35.65
33697;BME280;20031;43.416;23.232;2023-03-25T12:02:25;99300.06;;;22.93;35.89
33697;BME280;20031;43.416;23.232;2023-03-25T12:05:14;99301.91;;;22.88;35.71
33697;BME280;20031;43.416;23.232;2023-03-25T12:08:16;99303.63;;;22.72;34.95
33697;BME280;20031;43.416;23.232;2023-03-25T12:10:55;99301.16;;;22.61;35.31
33697;BME280;20031;43.416;23.232;2023-03-25T12:27:45;99290.09;;;22.16;36.19
33697;BME280;20031;43.416;23.232;2023-03-25T12:50:02;99283.75;;;21.70;37.34
33697;BME280;20031;43.416;23.232;2023-03-25T12:52:48;99290.03;;;21.64;37.55
33697;BME280;20031;43.416;23.232;2023-03-25T12:55:26;99291.28;;;21.56;37.51
33697;BME280;20031;43.416;23.232;2023-03-25T12:58:02;99289.38;;;21.52;37.69
33697;BME280;20031;43.416;23.232;2023-03-25T13:05:53;99285.28;;;21.45;39.27
33697;BME280;20031;43.416;23.232;2023-03-25T13:08:44;99274.03;;;21.54;39.53
33697;BME280;20031;43.416;23.232;2023-03-25T13:11:14;99270.69;;;21.63;41.01
33697;BME280;20031;43.416;23.232;2023-03-25T13:13:43;99263.09;;;21.72;40.50
33697;BME280;20031;43.416;23.232;2023-03-25T13:16:17;99267.47;;;21.83;39.58
33697;BME280;20031;43.416;23.232;2023-03-25T13:18:48;99265.28;;;21.80;40.04
33697;BME280;20031;43.416;23.232;2023-03-25T13:23:55;99263.59;;;21.69;39.44
33697;BME280;20031;43.416;23.232;2023-03-25T13:26:23;99265.81;;;21.55;39.05
33697;BME280;20031;43.416;23.232;2023-03-25T13:28:54;99264.50;;;21.37;39.32
33697;BME280;20031;43.416;23.232;2023-03-25T13:31:26;99263.88;;;21.30;39.85
33697;BME280;20031;43.416;23.232;2023-03-25T13:34:00;99255.88;;;21.25;39.64
33697;BME280;20031;43.416;23.232;2023-03-25T13:36:35;99260.34;;;21.24;40.14
33697;BME280;20031;43.416;23.232;2023-03-25T13:39:24;99251.88;;;21.22;40.21
33697;BME280;20031;43.416;23.232;2023-03-25T13:42:36;99252.63;;;21.18;40.82
33697;BME280;20031;43.416;23.232;2023-03-25T13:45:13;99252.28;;;21.14;40.73
33697;BME280;20031;43.416;23.232;2023-03-25T13:47:43;99253.09;;;21.15;40.97
33697;BME280;20031;43.416;23.232;2023-03-25T13:50:22;99251.25;;;21.15;40.88
33697;BME280;20031;43.416;23.232;2023-03-25T13:52:53;99246.94;;;21.09;40.32
33697;BME280;20031;43.416;23.232;2023-03-25T13:55:24;99236.84;;;21.06;40.57
33697;BME280;20031;43.416;23.232;2023-03-25T13:58:25;99232.81;;;21.04;40.61
33697;BME280;20031;43.416;23.232;2023-03-25T14:04:21;99223.84;;;21.05;40.05
33697;BME280;20031;43.416;23.232;2023-03-25T14:07:02;99214.81;;;21.06;39.93
33697;BME280;20031;43.416;23.232;2023-03-25T14:12:27;99224.63;;;21.05;39.75
33697;BME280;20031;43.416;23.232;2023-03-25T14:15:00;99212.50;;;21.09;39.90
33697;BME280;20031;43.416;23.232;2023-03-25T14:17:28;99210.97;;;21.13;39.88
33697;BME280;20031;43.416;23.232;2023-03-25T14:19:57;99207.09;;;21.21;39.43
33697;BME280;20031;43.416;23.232;2023-03-25T14:22:29;99194.13;;;21.24;39.90
33697;BME280;20031;43.416;23.232;2023-03-25T14:24:56;99192.22;;;21.20;40.65
33697;BME280;20031;43.416;23.232;2023-03-25T14:27:33;99187.44;;;21.17;40.24
33697;BME280;20031;43.416;23.232;2023-03-25T14:30:04;99180.22;;;21.12;40.50
33697;BME280;20031;43.416;23.232;2023-03-25T14:32:31;99182.25;;;21.05;40.15
33697;BME280;20031;43.416;23.232;2023-03-25T14:43:31;99183.03;;;20.85;40.37
33697;BME280;20031;43.416;23.232;2023-03-25T14:56:41;99170.97;;;20.72;41.07
33697;BME280;20031;43.416;23.232;2023-03-25T14:59:20;99161.31;;;20.66;41.46
33697;BME280;20031;43.416;23.232;2023-03-25T15:01:48;99163.66;;;20.63;42.12
33697;BME280;20031;43.416;23.232;2023-03-25T15:04:22;99162.53;;;20.59;41.89
33697;BME280;20031;43.416;23.232;2023-03-25T15:06:49;99169.34;;;20.55;41.92
33697;BME280;20031;43.416;23.232;2023-03-25T15:09:16;99158.94;;;20.48;42.15
33697;BME280;20031;43.416;23.232;2023-03-25T15:11:51;99167.88;;;20.43;42.33
33697;BME280;20031;43.416;23.232;2023-03-25T15:14:22;99166.09;;;20.32;42.82
33697;BME280;20031;43.416;23.232;2023-03-25T15:19:17;99175.16;;;20.19;43.15
33697;BME280;20031;43.416;23.232;2023-03-25T15:24:25;99188.41;;;20.03;43.17
33697;BME280;20031;43.416;23.232;2023-03-25T15:26:54;99186.38;;;19.94;43.35
33697;BME280;20031;43.416;23.232;2023-03-25T15:32:33;99189.53;;;19.79;44.30
33697;BME280;20031;43.416;23.232;2023-03-25T15:46:14;99192.13;;;19.63;45.26
33697;BME280;20031;43.416;23.232;2023-03-25T15:57:22;99174.13;;;19.32;45.90
33697;BME280;20031;43.416;23.232;2023-03-25T16:02:44;99175.94;;;18.92;46.57
33697;BME280;20031;43.416;23.232;2023-03-25T16:05:15;99170.09;;;18.79;46.20
33697;BME280;20031;43.416;23.232;2023-03-25T16:07:41;99169.06;;;18.69;46.45
33697;BME280;20031;43.416;23.232;2023-03-25T16:10:19;99173.91;;;18.60;46.31